메인 페이지
METAR-TAF:

METAR-TAF

공항 :

앤토니오 B. 원 팻 국제공항

하갓냐, 괌, 미국

위도: 13-29N, 경도: 144-48E, 고도: 91m

현재 날씨관측

예보는 19분 전, 10:16시(UTC)에 발표되었습니다.
9kt
온도 28°C
습도 94%
기압 1010 hPa
시정: 16.1km
고도 1900ft 상공 구름 보통
고도 2600ft 상공 구름 많음

METAR: PGUM 161016Z 09009KT 10SM SCT019 BKN026 28/27 A2983 RMK AO2 T02830272

시각: 20:35 (10:35 UTC)

예보

예보는 4 시간 57분 전, 05:38시(UTC)에 발표되었습니다.
예보 대상 시간: 16일 06시부터 17일 12시까지 (UTC)
동북동12kt, 순간 최대 풍속 20kt
시정: 10km
고도 1800ft 상공 구름 조금
고도 5000ft 상공 구름 보통
고도 14000ft 상공 구름 많음
시계 내 소나기
16일 0800시부터 (UTC)
동북동11kt
시정: 10km
고도 1800ft 상공 구름 조금
고도 5000ft 상공 구름 보통
고도 14000ft 상공 구름 보통
시계 내 소나기
17일 0100시부터 (UTC)
12kt, 순간 최대 풍속 20kt
시정: 10km
고도 1600ft 상공 구름 조금
고도 4000ft 상공 구름 보통
고도 14000ft 상공 구름 많음
시계 내 소나기

TAF: PGUM 160538Z 1606/1712 07012G20KT P6SM VCSH FEW018 SCT050 BKN140 FM160800 07011KT P6SM VCSH FEW018 SCT050 SCT140 FM170100 09012G20KT P6SM VCSH FEW016 SCT040 BKN140

4,000개 이상의 공항 관측 자료 및 예보 (METAR 및 TAF 보고).

지도상에서 검색 가능한 기상관측소가 노란 점과 빨간 점으로 표시되어 있습니다.

기상관측소 명을 보려면 표시 위로 마우스를 이동하세요.

날씨 관측과 예보를 보려면 클릭하세요.

지도 변경 : 확대하려면 엑스 표시가 있는 녹색 버튼, 축소하려면 빼기 표시가 있는 녹색 버튼, 다음 페이지의 지도를 보려면 녹색 화살표를 클릭하세요.


METAR-TAF: